Time;durP1;ratioP1;P1;durP2;ratioP2;P2;SDS_P1;SDS_P2;PMS_P1;PMS_P2;Temp;Humidity;BMP_temperature;BMP_pressure;BME280_temperature;BME280_humidity;BME280_pressure;Samples;Min_cycle;Max_cycle;Signal;HPM_P1;HPM_P2
2021/09/25 00:04:54;;;;;;;5.72;5.13;;;;;;;19.26;66.74;99722.00;6248166;23;20098;-80
2021/09/25 00:07:39;;;;;;;8.50;5.78;;;;;;;19.22;66.96;99725.94;6221315;23;20021;-80
2021/09/25 00:10:06;;;;;;;7.72;6.28;;;;;;;19.24;66.71;99723.94;6221386;23;20099;-79
2021/09/25 00:12:44;;;;;;;10.95;6.45;;;;;;;19.19;66.76;99727.06;6222184;23;20071;-80
2021/09/25 00:15:11;;;;;;;6.95;5.82;;;;;;;19.23;66.88;99722.28;6221292;23;20347;-79
2021/09/25 00:17:51;;;;;;;6.97;6.00;;;;;;;19.18;66.96;99721.88;6221760;23;20087;-80
2021/09/25 00:20:19;;;;;;;10.68;6.05;;;;;;;19.20;66.99;99715.41;6248155;23;20034;-79
2021/09/25 00:23:13;;;;;;;7.20;5.70;;;;;;;19.15;67.03;99712.34;6221059;23;20020;-80
2021/09/25 00:25:40;;;;;;;9.18;5.90;;;;;;;19.18;66.76;99711.19;6221034;23;20016;-79
2021/09/25 00:28:09;;;;;;;9.02;5.93;;;;;;;19.15;66.76;99715.00;6247988;23;20020;-79
2021/09/25 00:30:36;;;;;;;10.00;5.90;;;;;;;19.14;66.81;99708.00;6221522;23;20414;-80
2021/09/25 00:33:02;;;;;;;7.72;6.03;;;;;;;19.11;66.75;99709.09;6221166;23;20095;-80
2021/09/25 00:35:35;;;;;;;10.15;6.85;;;;;;;19.06;67.16;99714.03;6220807;23;20032;-79
2021/09/25 00:38:02;;;;;;;7.75;6.28;;;;;;;19.08;66.88;99705.88;6221235;23;20030;-80
2021/09/25 00:40:56;;;;;;;9.35;6.13;;;;;;;19.01;67.63;99709.09;6220875;23;20026;-80
2021/09/25 00:43:23;;;;;;;10.20;6.53;;;;;;;19.05;66.96;99716.78;6221054;23;20023;-80
2021/09/25 00:46:00;;;;;;;10.57;6.22;;;;;;;18.99;67.49;99723.56;6221210;23;20498;-80
2021/09/25 00:48:27;;;;;;;10.15;6.72;;;;;;;18.99;67.00;99724.41;6220956;23;20020;-79
2021/09/25 00:51:09;;;;;;;8.63;6.75;;;;;;;18.94;67.53;99723.13;6221415;23;20379;-80
2021/09/25 00:53:35;;;;;;;8.48;6.70;;;;;;;18.97;67.30;99720.19;6221231;23;20034;-79
2021/09/25 00:56:04;;;;;;;7.47;6.07;;;;;;;18.94;67.24;99723.13;6220909;23;20020;-79
2021/09/25 00:58:31;;;;;;;10.80;6.65;;;;;;;18.93;67.14;99722.31;6221254;23;20095;-80
2021/09/25 01:00:58;;;;;;;8.98;6.90;;;;;;;18.92;67.45;99725.97;6221272;23;20083;-79
2021/09/25 01:03:25;;;;;;;8.35;7.00;;;;;;;18.89;67.33;99726.25;6220892;23;20026;-79
2021/09/25 01:05:52;;;;;;;9.70;6.38;;;;;;;18.88;67.56;99725.41;6221258;23;20047;-79
2021/09/25 01:08:23;;;;;;;8.43;6.95;;;;;;;18.85;67.98;99727.53;6221528;23;20095;-79
2021/09/25 01:10:51;;;;;;;12.25;7.20;;;;;;;18.85;67.67;99730.19;6221155;23;20051;-81
2021/09/25 01:13:19;;;;;;;7.97;6.75;;;;;;;18.84;67.35;99728.50;6246716;23;20020;-81
2021/09/25 01:15:46;;;;;;;9.27;7.30;;;;;;;18.81;67.84;99737.63;6220881;23;20019;-81
2021/09/25 01:18:14;;;;;;;10.05;7.70;;;;;;;18.79;67.77;99728.91;6221241;23;20044;-81
2021/09/25 01:20:41;;;;;;;8.75;7.53;;;;;;;18.79;67.86;99733.41;6220882;23;20396;-81
2021/09/25 01:23:09;;;;;;;10.32;7.80;;;;;;;18.76;67.64;99729.19;6220603;23;20027;-81
2021/09/25 01:25:36;;;;;;;11.73;7.88;;;;;;;18.75;67.68;99732.84;6220215;23;20020;-81
2021/09/25 01:28:21;;;;;;;9.65;7.88;;;;;;;18.70;68.23;99721.78;6220957;23;20026;-81
2021/09/25 01:30:48;;;;;;;10.48;7.32;;;;;;;18.73;68.06;99727.66;6220739;23;20026;-81
2021/09/25 01:33:14;;;;;;;10.27;7.13;;;;;;;18.72;67.71;99725.97;6220424;23;20020;-81
2021/09/25 01:35:41;;;;;;;8.85;7.28;;;;;;;18.72;67.78;99730.47;6220175;23;20026;-81
2021/09/25 01:38:17;;;;;;;9.70;8.18;;;;;;;18.68;68.50;99729.06;6220523;23;20017;-81
2021/09/25 01:40:44;;;;;;;9.10;7.65;;;;;;;18.70;67.88;99727.97;6220496;23;20028;-81
2021/09/25 01:43:11;;;;;;;9.45;7.95;;;;;;;18.69;67.87;99726.25;6220511;23;20028;-81
2021/09/25 01:45:47;;;;;;;12.25;8.45;;;;;;;18.65;68.30;99729.38;6220373;23;20055;-81
2021/09/25 01:48:14;;;;;;;14.23;7.78;;;;;;;18.68;68.15;99723.72;6220523;23;20024;-81
2021/09/25 01:50:42;;;;;;;10.15;8.02;;;;;;;18.68;68.44;99723.72;6220845;23;20028;-81
2021/09/25 01:53:10;;;;;;;10.27;8.18;;;;;;;18.66;68.15;99729.22;6220948;23;20034;-81
2021/09/25 01:55:52;;;;;;;10.13;8.18;;;;;;;18.62;68.76;99725.16;6220133;23;20022;-81
2021/09/25 01:58:18;;;;;;;13.02;9.05;;;;;;;18.65;68.26;99724.03;6220412;23;20030;-81
2021/09/25 02:01:07;;;;;;;10.68;8.63;;;;;;;18.59;69.12;99730.75;6220432;23;20026;-81
2021/09/25 02:03:37;;;;;;;10.70;8.50;;;;;;;18.61;68.30;99721.63;6220506;23;20351;-81
2021/09/25 02:06:10;;;;;;;11.07;8.10;;;;;;;18.59;68.48;99718.28;6220479;23;20348;-81
2021/09/25 02:08:40;;;;;;;10.02;7.38;;;;;;;18.60;68.53;99719.09;6220084;23;20027;-81
2021/09/25 02:11:07;;;;;;;13.68;8.77;;;;;;;18.59;68.17;99715.63;6220987;23;20087;-81
2021/09/25 02:13:36;;;;;;;9.95;8.35;;;;;;;18.56;68.67;99723.88;6220181;23;20078;-81
2021/09/25 02:16:03;;;;;;;11.45;7.85;;;;;;;18.57;68.59;99732.72;6220659;23;20351;-81
2021/09/25 02:18:34;;;;;;;10.73;9.13;;;;;;;18.53;68.87;99729.50;6220071;23;20092;-81
2021/09/25 02:21:02;;;;;;;11.27;7.97;;;;;;;18.55;68.26;99732.88;6220066;23;20091;-81
2021/09/25 02:23:38;;;;;;;9.48;8.10;;;;;;;18.49;69.03;99734.28;6220409;23;20510;-81
2021/09/25 02:26:06;;;;;;;10.80;8.05;;;;;;;18.52;68.72;99714.50;6220564;23;20032;-81
2021/09/25 02:28:39;;;;;;;10.70;7.63;;;;;;;18.49;68.74;99714.75;6220247;23;20463;-81
2021/09/25 02:31:06;;;;;;;12.13;7.93;;;;;;;18.51;68.77;99704.81;6220031;23;20020;-81
2021/09/25 02:33:33;;;;;;;13.30;8.48;;;;;;;18.51;68.25;99703.97;6220436;23;20550;-81
2021/09/25 02:35:59;;;;;;;10.70;7.50;;;;;;;18.49;68.40;99709.44;6220193;23;20030;-81
2021/09/25 02:38:26;;;;;;;10.60;8.13;;;;;;;18.48;68.60;99703.28;6220324;23;20099;-81
2021/09/25 02:40:53;;;;;;;9.77;8.25;;;;;;;18.47;68.43;99706.91;6220022;23;20106;-81
2021/09/25 02:43:20;;;;;;;11.77;7.68;;;;;;;18.47;68.83;99712.22;6220492;23;20095;-81
2021/09/25 02:45:48;;;;;;;10.32;8.23;;;;;;;18.46;68.57;99705.22;6220111;23;20091;-81
2021/09/25 02:48:15;;;;;;;12.38;8.57;;;;;;;18.46;68.54;99713.22;6219393;23;20020;-81
2021/09/25 02:50:47;;;;;;;10.90;7.97;;;;;;;18.45;68.82;99705.34;6218952;23;20020;-81
2021/09/25 02:53:14;;;;;;;9.95;8.13;;;;;;;18.47;68.49;99706.06;6219591;23;20107;-81
2021/09/25 02:55:47;;;;;;;11.43;7.70;;;;;;;18.44;68.95;99704.53;6219515;23;20107;-81
2021/09/25 02:58:14;;;;;;;12.88;8.45;;;;;;;18.46;68.36;99707.03;6219884;23;20031;-81
2021/09/25 03:00:42;;;;;;;11.95;8.90;;;;;;;18.46;68.66;99707.88;6219631;23;20091;-81
2021/09/25 03:03:10;;;;;;;11.18;8.32;;;;;;;18.46;68.31;99712.38;6220085;23;20020;-81
2021/09/25 03:05:37;;;;;;;12.52;8.40;;;;;;;18.45;68.60;99718.69;6220362;23;20098;-81
2021/09/25 03:08:04;;;;;;;12.75;8.80;;;;;;;18.44;68.52;99715.19;6219501;23;20027;-81
2021/09/25 03:10:34;;;;;;;13.68;8.43;;;;;;;18.41;68.59;99711.94;6219999;23;20024;-81
2021/09/25 03:13:00;;;;;;;13.25;8.57;;;;;;;18.41;68.18;99707.47;6220114;23;20107;-79
2021/09/25 03:15:29;;;;;;;15.13;7.93;;;;;;;18.40;68.50;99711.13;6219887;23;20050;-79
2021/09/25 03:17:55;;;;;;;10.50;7.63;;;;;;;18.40;68.53;99715.59;6219975;23;20052;-78
2021/09/25 03:20:48;;;;;;;12.00;8.68;;;;;;;18.34;68.62;99719.66;6219388;23;20035;-79
2021/09/25 03:23:14;;;;;;;9.57;7.82;;;;;;;18.39;68.19;99719.25;6219975;23;20461;-79
2021/09/25 03:29:34;;;;;;;10.80;7.65;;;;;;;18.35;68.60;99724.84;6246308;23;20066;-79
2021/09/25 03:32:01;;;;;;;13.43;8.10;;;;;;;18.38;67.96;99726.41;6220051;23;20024;-80
2021/09/25 03:34:27;;;;;;;13.38;7.88;;;;;;;18.38;68.06;99733.56;6219699;23;20082;-79
2021/09/25 03:37:03;;;;;;;10.93;7.82;;;;;;;18.33;68.47;99739.31;6220569;23;20020;-79
2021/09/25 03:39:30;;;;;;;14.23;9.18;;;;;;;18.35;68.25;99738.19;6221570;23;20030;-79
2021/09/25 03:41:57;;;;;;;10.13;7.82;;;;;;;18.35;68.17;99732.00;6248243;23;20060;-79
2021/09/25 03:44:29;;;;;;;11.88;8.48;;;;;;;18.32;68.36;99729.63;6247986;23;20112;-79
2021/09/25 03:46:56;;;;;;;11.90;7.28;;;;;;;18.33;68.36;99732.16;6221814;23;20351;-79
2021/09/25 03:49:54;;;;;;;14.70;8.23;;;;;;;18.29;68.74;99727.25;6221639;23;20020;-79
2021/09/25 03:52:33;;;;;;;12.88;7.50;;;;;;;18.30;68.49;99734.25;6221458;23;20020;-79
2021/09/25 03:55:00;;;;;;;11.20;7.63;;;;;;;18.33;68.14;99731.31;6221208;23;20020;-80
2021/09/25 03:57:27;;;;;;;12.90;7.97;;;;;;;18.33;67.97;99734.81;6221476;23;20091;-79
2021/09/25 03:59:58;;;;;;;14.13;9.05;;;;;;;18.29;68.54;99730.75;6221564;23;20032;-79
2021/09/25 04:02:25;;;;;;;11.25;8.13;;;;;;;18.31;68.13;99736.78;6221998;23;20106;-78
2021/09/25 04:04:53;;;;;;;12.65;8.55;;;;;;;18.31;67.99;99733.25;6221654;23;20462;-79
2021/09/25 04:07:28;;;;;;;10.45;8.50;;;;;;;18.27;68.50;99731.88;6221706;23;20415;-79
2021/09/25 04:09:55;;;;;;;11.45;7.95;;;;;;;18.30;67.91;99735.09;6221612;23;20020;-79
2021/09/25 04:12:34;;;;;;;11.82;8.23;;;;;;;18.25;68.09;99732.00;6248032;23;20102;-79
2021/09/25 04:15:01;;;;;;;15.73;8.52;;;;;;;18.28;67.84;99723.72;6221660;23;20058;-79
2021/09/25 04:17:35;;;;;;;10.93;8.27;;;;;;;18.25;68.37;99726.69;6221735;23;20051;-79
2021/09/25 04:20:05;;;;;;;11.82;7.57;;;;;;;18.27;67.93;99732.69;6247795;23;20107;-79
2021/09/25 04:22:32;;;;;;;9.98;8.07;;;;;;;18.26;67.71;99731.03;6221201;23;20020;-79
2021/09/25 04:28:20;;;;;;;11.55;8.13;;;;;;;18.26;68.10;99730.16;6248496;23;20031;-79
2021/09/25 04:30:49;;;;;;;10.73;8.32;;;;;;;18.23;68.01;99726.81;6221646;23;20447;-79
2021/09/25 04:33:16;;;;;;;12.68;8.63;;;;;;;18.22;67.76;99729.63;6221525;23;20522;-79
2021/09/25 04:35:43;;;;;;;11.55;8.38;;;;;;;18.22;68.00;99737.59;6247637;23;20056;-79
2021/09/25 04:38:10;;;;;;;11.57;8.43;;;;;;;18.21;67.89;99735.94;6221486;23;20490;-79
2021/09/25 04:40:36;;;;;;;12.45;8.68;;;;;;;18.21;68.20;99738.59;6221445;23;20696;-79
2021/09/25 04:43:13;;;;;;;14.23;8.77;;;;;;;18.18;68.36;99733.53;6221015;23;20020;-79
2021/09/25 04:45:39;;;;;;;10.63;7.82;;;;;;;18.21;67.88;99738.59;6220812;23;20103;-80
2021/09/25 04:48:06;;;;;;;11.48;7.97;;;;;;;18.21;67.76;99738.59;6220752;23;20020;-79
2021/09/25 04:50:45;;;;;;;30.00;8.60;;;;;;;18.17;68.26;99735.34;6221320;23;20042;-80
2021/09/25 04:53:14;;;;;;;11.52;8.35;;;;;;;18.21;67.98;99733.25;6220781;23;20020;-79
2021/09/25 04:55:42;;;;;;;15.13;9.20;;;;;;;18.19;67.98;99741.38;6220843;23;20026;-79
2021/09/25 04:58:13;;;;;;;11.93;8.93;;;;;;;18.18;67.85;99741.53;6221443;23;20346;-79
2021/09/25 05:00:40;;;;;;;12.80;8.57;;;;;;;18.18;67.73;99730.88;6221212;23;20035;-79
2021/09/25 05:03:20;;;;;;;12.40;8.45;;;;;;;18.11;68.17;99741.22;6221514;23;20459;-79
2021/09/25 05:05:47;;;;;;;14.63;8.48;;;;;;;18.15;67.78;99741.78;6247590;23;20026;-80
2021/09/25 05:08:29;;;;;;;12.95;8.75;;;;;;;18.06;68.44;99733.59;6220459;23;20020;-80
2021/09/25 05:10:57;;;;;;;16.88;8.98;;;;;;;18.10;67.84;99744.88;6220770;23;20104;-80
2021/09/25 05:13:24;;;;;;;13.50;8.88;;;;;;;18.08;68.04;99739.69;6220985;23;20028;-79
2021/09/25 05:15:54;;;;;;;11.95;9.15;;;;;;;18.06;68.29;99746.94;6220581;23;20028;-80
2021/09/25 05:18:21;;;;;;;12.32;8.90;;;;;;;18.06;68.12;99738.09;6220837;23;20028;-80
2021/09/25 05:20:47;;;;;;;12.10;8.57;;;;;;;18.05;67.94;99747.09;6220656;23;20028;-79
2021/09/25 05:23:26;;;;;;;14.38;8.48;;;;;;;18.00;68.36;99746.63;6221062;23;20099;-80
2021/09/25 05:25:53;;;;;;;11.52;8.63;;;;;;;18.03;68.14;99746.38;6220366;23;20107;-80
2021/09/25 05:28:35;;;;;;;13.02;8.60;;;;;;;17.98;68.41;99754.75;6220812;23;20462;-80
2021/09/25 05:31:02;;;;;;;12.20;8.75;;;;;;;18.02;68.07;99753.50;6221212;23;20019;-80
2021/09/25 05:33:40;;;;;;;13.23;8.50;;;;;;;17.98;68.61;99760.94;6221044;23;20474;-80
2021/09/25 05:36:07;;;;;;;13.98;8.75;;;;;;;18.01;68.10;99754.47;6220452;23;20026;-80
2021/09/25 05:38:33;;;;;;;12.25;8.60;;;;;;;18.02;68.10;99760.66;6220443;23;20031;-79
2021/09/25 05:41:08;;;;;;;12.52;8.85;;;;;;;17.97;68.48;99759.25;6220441;23;20099;-80
2021/09/25 05:43:35;;;;;;;16.10;9.30;;;;;;;18.00;68.31;99759.94;6220255;23;20028;-80
2021/09/25 05:46:15;;;;;;;12.73;8.60;;;;;;;17.95;68.43;99763.03;6220269;23;20032;-79
2021/09/25 05:48:42;;;;;;;13.80;9.00;;;;;;;17.98;68.28;99760.06;6220710;23;20024;-79
2021/09/25 05:51:12;;;;;;;12.40;9.20;;;;;;;17.96;68.67;99767.38;6246728;23;20028;-79
2021/09/25 05:53:39;;;;;;;13.40;8.75;;;;;;;17.96;68.34;99770.03;6220653;23;20027;-79
2021/09/25 05:56:06;;;;;;;12.35;8.75;;;;;;;17.95;68.11;99766.53;6220720;23;20027;-79
2021/09/25 05:58:36;;;;;;;11.88;8.40;;;;;;;17.94;68.47;99769.34;6220440;23;20342;-79
2021/09/25 06:01:02;;;;;;;11.15;8.25;;;;;;;17.95;68.56;99771.84;6220299;23;20020;-80
2021/09/25 06:03:29;;;;;;;13.13;8.88;;;;;;;17.95;68.31;99765.69;6220633;23;20404;-79
2021/09/25 06:05:56;;;;;;;16.35;8.70;;;;;;;17.95;68.30;99771.84;6220477;23;20371;-80
2021/09/25 06:08:31;;;;;;;12.63;8.65;;;;;;;17.92;68.76;99781.94;6220628;23;20024;-79
2021/09/25 06:10:58;;;;;;;12.45;8.90;;;;;;;17.95;68.25;99773.69;6220646;23;20028;-79
2021/09/25 06:13:25;;;;;;;12.07;8.57;;;;;;;17.96;68.30;99770.03;6220110;23;20099;-79
2021/09/25 06:16:02;;;;;;;10.38;8.35;;;;;;;17.91;68.65;99778.41;6219821;23;20031;-79
2021/09/25 06:18:29;;;;;;;13.30;7.95;;;;;;;17.95;68.39;99773.69;6220354;23;20020;-79
2021/09/25 06:20:56;;;;;;;10.95;7.43;;;;;;;17.95;68.36;99781.69;6220664;23;20032;-79
2021/09/25 06:23:22;;;;;;;12.27;8.23;;;;;;;17.96;68.34;99780.69;6220553;23;20103;-79
2021/09/25 06:25:49;;;;;;;11.15;7.82;;;;;;;17.96;68.68;99778.88;6220474;23;20109;-83
2021/09/25 06:28:16;;;;;;;12.77;7.93;;;;;;;17.98;68.27;99794.69;6220021;23;20078;-82
2021/09/25 06:31:11;;;;;;;13.35;8.30;;;;;;;17.93;68.64;99783.63;6246511;23;20020;-82
2021/09/25 06:33:38;;;;;;;12.75;8.75;;;;;;;17.97;68.47;99775.22;6220247;23;20023;-83
2021/09/25 06:36:04;;;;;;;10.88;7.60;;;;;;;18.00;68.17;99789.25;6220067;23;20354;-83
2021/09/25 06:38:35;;;;;;;13.40;8.52;;;;;;;17.98;68.27;99797.38;6219661;23;20027;-79
2021/09/25 06:41:02;;;;;;;11.50;7.75;;;;;;;18.00;68.29;99803.41;6246587;23;20094;-79
2021/09/25 06:43:35;;;;;;;10.30;7.22;;;;;;;17.98;68.38;99798.22;6220449;23;20024;-78
2021/09/25 06:46:02;;;;;;;14.85;8.30;;;;;;;18.01;68.39;99805.09;6220099;23;20034;-79
2021/09/25 06:48:31;;;;;;;11.10;7.97;;;;;;;18.00;68.09;99798.09;6219892;23;20024;-79
2021/09/25 06:50:58;;;;;;;11.88;7.90;;;;;;;18.02;68.25;99801.44;6219995;23;20024;-79
2021/09/25 06:53:25;;;;;;;12.65;7.80;;;;;;;18.02;68.24;99808.59;6219705;23;20031;-79
2021/09/25 06:55:53;;;;;;;11.25;7.60;;;;;;;18.02;68.32;99809.44;6219751;23;20024;-79
2021/09/25 06:58:20;;;;;;;13.63;7.93;;;;;;;18.03;68.42;99805.81;6246174;23;20024;-79
2021/09/25 07:00:49;;;;;;;10.82;7.65;;;;;;;18.03;68.19;99805.81;6219614;23;20034;-79
2021/09/25 07:03:19;;;;;;;10.50;8.20;;;;;;;18.06;68.49;99804.69;6220097;23;20027;-79
2021/09/25 07:05:46;;;;;;;12.60;8.20;;;;;;;18.08;68.59;99800.94;6219100;23;20038;-79
2021/09/25 07:08:19;;;;;;;14.60;8.18;;;;;;;18.08;68.26;99797.44;6219486;23;20054;-79
2021/09/25 07:10:48;;;;;;;10.57;7.65;;;;;;;18.14;68.17;99812.88;6218691;23;20055;-78
2021/09/25 07:13:17;;;;;;;12.45;7.20;;;;;;;18.16;68.15;99812.75;6219121;23;20020;-79
2021/09/25 07:15:43;;;;;;;12.80;7.78;;;;;;;18.17;67.78;99811.78;6218897;23;20111;-79
2021/09/25 07:18:12;;;;;;;12.93;7.82;;;;;;;18.19;68.16;99823.13;6246126;23;20016;-80
2021/09/25 07:20:40;;;;;;;9.88;7.22;;;;;;;18.20;67.73;99828.31;6219338;23;20059;-78
2021/09/25 07:23:08;;;;;;;12.15;7.35;;;;;;;18.22;67.87;99830.84;6219533;23;20094;-83
2021/09/25 07:25:36;;;;;;;10.43;7.10;;;;;;;18.24;68.06;99834.22;6219494;23;20104;-83
2021/09/25 07:28:07;;;;;;;14.65;9.18;;;;;;;18.25;68.12;99835.91;6219991;23;20485;-83
2021/09/25 07:30:38;;;;;;;13.27;8.18;;;;;;;18.30;68.24;99847.00;6220350;23;20028;-83
2021/09/25 07:33:24;;;;;;;10.38;7.85;;;;;;;18.29;68.12;99839.16;6220043;23;20020;-83
2021/09/25 07:36:37;;;;;;;12.20;7.68;;;;;;;18.34;68.39;99847.56;6219472;23;20016;-83
2021/09/25 07:39:03;;;;;;;12.65;8.55;;;;;;;18.45;67.93;99849.28;6220227;23;20017;-83
2021/09/25 07:41:37;;;;;;;12.32;7.68;;;;;;;18.46;68.11;99848.28;6219361;23;20020;-83
2021/09/25 07:44:04;;;;;;;10.93;7.80;;;;;;;18.51;67.94;99859.41;6219505;23;20111;-83
2021/09/25 07:46:34;;;;;;;13.10;7.18;;;;;;;18.52;67.84;99858.44;6220188;23;20221;-83
2021/09/25 07:49:01;;;;;;;15.25;8.15;;;;;;;18.58;67.86;99857.03;6219797;23;20062;-83
2021/09/25 07:51:28;;;;;;;14.02;8.40;;;;;;;18.59;67.73;99851.56;6219229;23;20020;-83
2021/09/25 07:53:57;;;;;;;12.57;8.77;;;;;;;18.61;67.46;99856.75;6219224;23;20100;-83
2021/09/25 07:56:24;;;;;;;14.88;8.73;;;;;;;18.63;67.59;99860.13;6219989;23;20347;-83
2021/09/25 07:59:03;;;;;;;13.13;8.35;;;;;;;18.61;67.32;99868.25;6219339;23;20095;-83
2021/09/25 08:01:34;;;;;;;14.07;8.70;;;;;;;18.67;67.17;99861.53;6220601;23;20031;-83
2021/09/25 08:04:02;;;;;;;16.10;8.45;;;;;;;18.69;67.40;99858.75;6219071;23;20024;-83
2021/09/25 08:06:29;;;;;;;12.10;8.30;;;;;;;18.70;67.47;99871.09;6219408;23;20059;-83
2021/09/25 08:08:56;;;;;;;14.05;9.75;;;;;;;18.70;67.28;99871.94;6219321;23;20519;-83
2021/09/25 08:11:22;;;;;;;12.57;8.50;;;;;;;18.72;67.38;99871.78;6219833;23;20024;-79
2021/09/25 08:13:49;;;;;;;11.88;8.27;;;;;;;18.75;67.56;99868.84;6219596;23;20468;-78
2021/09/25 08:16:16;;;;;;;12.57;7.80;;;;;;;18.80;67.33;99874.59;6220405;23;20071;-79
2021/09/25 08:18:43;;;;;;;17.75;8.93;;;;;;;18.83;67.58;99877.00;6219429;23;20016;-78
2021/09/25 08:21:10;;;;;;;11.20;8.77;;;;;;;18.87;67.45;99880.22;6219162;23;20028;-79
2021/09/25 08:23:57;;;;;;;15.25;9.02;;;;;;;18.87;67.45;99885.56;6220633;23;20021;-83
2021/09/25 08:26:26;;;;;;;12.75;8.63;;;;;;;18.97;67.42;99877.56;6221874;23;20062;-83
2021/09/25 08:28:53;;;;;;;14.13;8.90;;;;;;;19.01;67.39;99877.16;6247908;23;20526;-83
2021/09/25 08:31:24;;;;;;;13.63;9.55;;;;;;;19.04;67.15;99881.38;6221464;23;20465;-83
2021/09/25 08:34:17;;;;;;;13.40;9.18;;;;;;;19.07;66.85;99880.28;6247414;23;20066;-81
2021/09/25 08:36:45;;;;;;;14.88;9.13;;;;;;;19.16;66.60;99878.59;6221123;23;20016;-80
2021/09/25 08:39:12;;;;;;;13.95;9.20;;;;;;;19.17;66.72;99878.44;6221537;23;20020;-81
2021/09/25 08:41:41;;;;;;;12.00;9.27;;;;;;;19.18;66.70;99881.97;6220848;23;20095;-81
2021/09/25 08:44:08;;;;;;;14.60;8.85;;;;;;;19.21;67.39;99879.84;6221030;23;20028;-78
2021/09/25 08:46:35;;;;;;;15.63;9.70;;;;;;;19.24;66.99;99884.06;6221577;23;20027;-79
2021/09/25 08:49:05;;;;;;;12.25;8.93;;;;;;;19.28;67.41;99882.78;6221069;23;20074;-78
2021/09/25 08:51:32;;;;;;;16.15;8.95;;;;;;;19.36;67.72;99884.78;6220932;23;20074;-79
2021/09/25 08:53:59;;;;;;;11.90;8.65;;;;;;;19.44;67.74;99881.38;6247422;23;20024;-79
2021/09/25 08:56:28;;;;;;;13.85;9.13;;;;;;;19.51;67.05;99888.69;6220651;23;20071;-79
2021/09/25 08:58:55;;;;;;;12.48;8.88;;;;;;;19.59;66.93;99887.94;6221070;23;20425;-79
2021/09/25 09:01:30;;;;;;;14.63;9.07;;;;;;;19.63;66.99;99884.00;6220788;23;20031;-79
2021/09/25 09:03:58;;;;;;;14.50;8.88;;;;;;;19.70;66.78;99884.28;6220686;23;20020;-78
2021/09/25 09:06:29;;;;;;;13.55;9.13;;;;;;;19.76;67.10;99889.06;6221373;23;20502;-79
2021/09/25 09:09:00;;;;;;;13.88;8.68;;;;;;;19.79;66.65;99883.44;6221040;23;20066;-79
2021/09/25 09:11:27;;;;;;;11.70;8.27;;;;;;;19.88;66.87;99887.06;6220466;23;20099;-79
2021/09/25 09:13:56;;;;;;;19.15;9.48;;;;;;;19.95;66.54;99891.84;6220434;23;20109;-80
2021/09/25 09:16:24;;;;;;;11.30;8.68;;;;;;;20.01;66.57;99883.25;6220482;23;20107;-81
2021/09/25 09:18:53;;;;;;;14.88;9.13;;;;;;;20.04;66.08;99886.47;6220968;23;20020;-80
2021/09/25 09:21:21;;;;;;;12.27;9.43;;;;;;;20.08;65.85;99883.50;6220561;23;20024;-79
2021/09/25 09:23:58;;;;;;;14.52;10.20;;;;;;;20.08;65.89;99889.72;6221007;23;20087;-79
2021/09/25 09:26:26;;;;;;;13.60;9.45;;;;;;;20.15;65.99;99890.78;6247121;23;20094;-79
2021/09/25 09:28:55;;;;;;;17.05;9.80;;;;;;;20.20;66.06;99897.50;6220804;23;20030;-79
2021/09/25 09:31:23;;;;;;;14.88;9.82;;;;;;;20.23;65.91;99890.06;6220747;23;20103;-79
2021/09/25 09:33:52;;;;;;;15.80;10.02;;;;;;;20.29;65.81;99892.13;6220240;23;20103;-79
2021/09/25 09:36:30;;;;;;;14.77;9.30;;;;;;;20.31;66.08;99892.00;6220403;23;20103;-78
2021/09/25 09:39:11;;;;;;;14.65;10.10;;;;;;;20.41;65.77;99892.78;6221685;23;20361;-79
2021/09/25 09:41:53;;;;;;;15.77;9.55;;;;;;;20.47;65.78;99891.34;6221507;23;20020;-79
2021/09/25 09:44:22;;;;;;;13.90;9.15;;;;;;;20.55;65.84;99896.78;6220310;23;20070;-79
2021/09/25 09:46:52;;;;;;;15.48;9.15;;;;;;;20.60;65.51;99899.03;6220597;23;20028;-79
2021/09/25 09:49:22;;;;;;;15.30;9.65;;;;;;;20.66;65.77;99903.78;6247292;23;20016;-79
2021/09/25 09:51:55;;;;;;;16.30;9.70;;;;;;;20.73;65.50;99889.78;6220974;23;20042;-80
2021/09/25 09:54:29;;;;;;;13.32;8.90;;;;;;;20.79;65.69;99890.03;6221058;23;20343;-78
2021/09/25 09:56:58;;;;;;;15.25;9.35;;;;;;;20.90;65.57;99896.19;6220738;23;20026;-79
2021/09/25 09:59:27;;;;;;;13.65;8.90;;;;;;;20.96;65.35;99901.78;6220773;23;20120;-78
2021/09/25 10:01:54;;;;;;;15.32;9.25;;;;;;;21.05;65.46;99894.66;6220481;23;20028;-79
2021/09/25 10:04:23;;;;;;;14.02;9.85;;;;;;;21.11;65.03;99893.22;6246654;23;20020;-79
2021/09/25 10:06:52;;;;;;;14.95;9.18;;;;;;;21.21;65.38;99898.50;6221625;23;20024;-79
2021/09/25 10:09:26;;;;;;;18.70;9.77;;;;;;;21.27;64.60;99892.50;6220553;23;20103;-79
2021/09/25 10:11:59;;;;;;;16.83;9.48;;;;;;;21.38;64.50;99893.28;6220982;23;20380;-79
2021/09/25 10:14:28;;;;;;;13.55;9.35;;;;;;;21.47;64.59;99906.59;6220471;23;20020;-79
2021/09/25 10:17:03;;;;;;;14.32;9.23;;;;;;;21.54;64.29;99903.28;6246752;23;20028;-79
2021/09/25 10:19:32;;;;;;;14.60;9.77;;;;;;;21.66;64.09;99894.00;6220345;23;20016;-79
2021/09/25 10:22:07;;;;;;;16.30;9.52;;;;;;;21.76;64.07;99898.44;6220549;23;20024;-79
2021/09/25 10:24:37;;;;;;;18.10;9.32;;;;;;;21.88;64.63;99899.84;6219991;23;20059;-79
2021/09/25 10:27:07;;;;;;;13.35;9.05;;;;;;;22.02;64.30;99895.75;6219837;23;20099;-79
2021/09/25 10:29:43;;;;;;;12.23;8.93;;;;;;;22.15;63.32;99902.50;6219825;23;20020;-79
2021/09/25 10:32:19;;;;;;;16.67;9.07;;;;;;;22.29;63.47;99898.38;6219755;23;20035;-79
2021/09/25 10:35:07;;;;;;;15.13;8.65;;;;;;;22.41;63.65;99905.13;6219498;23;20038;-79
2021/09/25 10:37:43;;;;;;;13.27;7.68;;;;;;;22.59;65.33;99907.75;6220181;23;20522;-79
2021/09/25 10:40:38;;;;;;;12.98;8.57;;;;;;;22.77;63.59;99907.63;6224939;23;20439;-79
2021/09/25 10:43:23;;;;;;;13.93;8.57;;;;;;;22.93;63.92;99900.63;6219745;23;20107;-79
2021/09/25 10:45:58;;;;;;;13.73;8.77;;;;;;;23.15;62.70;99909.03;6219494;23;20103;-83
2021/09/25 10:48:28;;;;;;;13.15;8.85;;;;;;;23.32;62.69;99906.38;6219738;23;20102;-83
2021/09/25 10:51:11;;;;;;;12.25;8.10;;;;;;;23.47;62.02;99911.94;6246670;23;20020;-83
2021/09/25 10:53:41;;;;;;;14.27;8.15;;;;;;;23.63;61.60;99919.16;6220299;23;20513;-83
2021/09/25 10:56:28;;;;;;;12.38;7.18;;;;;;;23.70;60.92;99909.41;6220103;23;20024;-83
2021/09/25 10:59:06;;;;;;;13.98;7.60;;;;;;;23.80;60.34;99910.06;6219643;23;20024;-81
2021/09/25 11:01:34;;;;;;;11.55;8.68;;;;;;;23.92;61.16;99907.03;6220131;23;20415;-79
2021/09/25 11:04:04;;;;;;;11.75;7.80;;;;;;;24.04;61.95;99894.84;6219495;23;20167;-79
2021/09/25 11:06:39;;;;;;;10.73;7.82;;;;;;;24.26;62.39;99905.91;6220290;23;20074;-79
2021/09/25 11:09:25;;;;;;;12.75;8.13;;;;;;;24.58;63.75;99898.72;6220312;23;20107;-80
2021/09/25 11:11:55;;;;;;;12.73;8.18;;;;;;;25.10;63.51;99895.56;6219521;23;20099;-80
2021/09/25 11:14:28;;;;;;;10.38;7.47;;;;;;;25.67;61.56;99904.22;6219709;23;20185;-80
2021/09/25 11:17:10;;;;;;;8.52;6.28;;;;;;;26.32;60.05;99902.88;6219784;23;20095;-80
2021/09/25 11:19:40;;;;;;;11.10;7.15;;;;;;;26.92;59.01;99908.13;6220560;23;20016;-80
2021/09/25 11:22:15;;;;;;;9.25;6.63;;;;;;;27.44;56.06;99905.31;6219709;23;20491;-80
2021/09/25 11:25:02;;;;;;;10.80;6.57;;;;;;;27.86;55.44;99900.03;6219212;23;20032;-80
2021/09/25 11:27:34;;;;;;;12.43;6.30;;;;;;;28.22;54.17;99898.16;6219879;23;20021;-80
2021/09/25 11:30:09;;;;;;;;;;;;;;;28.52;57.95;99897.03;6220349;23;20034;-80
2021/09/25 11:32:49;;;;;;;7.85;5.25;;;;;;;28.82;52.92;99897.53;6219494;23;19916;-80
2021/09/25 11:35:31;;;;;;;9.20;5.63;;;;;;;29.01;52.59;99887.00;6152999;23;20097;-80
2021/09/25 11:38:05;;;;;;;9.70;5.97;;;;;;;29.19;51.93;99878.22;6153391;23;20116;-80
2021/09/25 11:40:36;;;;;;;8.48;5.28;;;;;;;29.37;52.08;99879.47;6153345;23;20021;-79
2021/09/25 11:43:04;;;;;;;8.15;5.97;;;;;;;29.63;52.06;99878.66;6153689;23;20112;-80
2021/09/25 11:45:33;;;;;;;6.28;5.40;;;;;;;29.93;51.04;99885.47;6153294;23;20124;-79
2021/09/25 11:48:02;;;;;;;8.65;5.53;;;;;;;30.17;49.46;99883.97;6153593;23;20032;-79
2021/09/25 11:50:36;;;;;;;8.18;5.45;;;;;;;30.26;47.76;99884.56;6153411;23;20026;-79
2021/09/25 11:53:06;;;;;;;8.82;5.50;;;;;;;30.26;47.94;99873.72;6153045;23;20367;-79
2021/09/25 11:55:37;;;;;;;9.18;5.25;;;;;;;30.22;47.88;99871.63;6153224;23;20065;-79